Time;durP1;ratioP1;P1;durP2;ratioP2;P2;SDS_P1;SDS_P2;PMS_P1;PMS_P2;Temp;Humidity;BMP_temperature;BMP_pressure;BME280_temperature;BME280_humidity;BME280_pressure;Samples;Min_cycle;Max_cycle;Signal;HPM_P1;HPM_P2
2024/01/05 00:01:27;;;;;;;15.35;3.78;;;;;;;8.57;99.22;99827.75;5070214;28;20114;-78
2024/01/05 00:03:53;;;;;;;12.52;3.60;;;;;;;8.56;99.49;99838.38;5065025;28;20468;-78
2024/01/05 00:06:19;;;;;;;17.17;3.00;;;;;;;8.56;99.15;99838.38;5073475;28;20028;-78
2024/01/05 00:08:44;;;;;;;11.93;2.50;;;;;;;8.54;99.80;99827.91;5072864;28;20048;-79
2024/01/05 00:11:17;;;;;;;15.13;3.80;;;;;;;8.53;99.70;99820.91;5073967;28;20387;-79
2024/01/05 00:13:42;;;;;;;8.65;2.15;;;;;;;8.58;99.00;99816.31;5055146;28;21161;-74
2024/01/05 00:16:07;;;;;;;13.23;3.45;;;;;;;8.58;99.78;99826.84;5070896;28;20426;-75
2024/01/05 00:18:33;;;;;;;12.05;2.70;;;;;;;8.65;99.16;99828.25;5074016;28;20029;-75
2024/01/05 00:20:58;;;;;;;14.80;3.15;;;;;;;8.63;99.54;99824.84;5075312;28;20024;-74
2024/01/05 00:23:23;;;;;;;8.23;2.15;;;;;;;8.68;99.64;99828.09;5070514;28;20085;-75
2024/01/05 00:25:49;;;;;;;9.10;2.55;;;;;;;8.67;99.17;99825.53;5070829;28;20036;-74
2024/01/05 00:28:14;;;;;;;16.13;3.13;;;;;;;8.68;99.75;99819.34;5075381;28;20028;-75
2024/01/05 00:30:39;;;;;;;11.45;3.42;;;;;;;8.71;99.54;99815.69;5057316;28;20517;-74
2024/01/05 00:33:05;;;;;;;12.85;2.75;;;;;;;8.75;99.69;99810.19;5059093;28;20467;-79
2024/01/05 00:35:30;;;;;;;13.60;2.55;;;;;;;8.74;100.00;99802.38;5079322;28;20420;-79
2024/01/05 00:37:55;;;;;;;8.00;2.55;;;;;;;8.79;99.26;99801.22;5075564;28;20027;-79
2024/01/05 00:40:21;;;;;;;12.98;3.30;;;;;;;8.74;99.66;99795.31;5076014;28;20107;-79
2024/01/05 00:42:46;;;;;;;20.45;3.47;;;;;;;8.78;99.66;99796.88;5077133;28;20542;-79
2024/01/05 00:45:11;;;;;;;11.20;2.30;;;;;;;8.84;99.79;99791.28;5076611;28;20475;-79
2024/01/05 00:47:37;;;;;;;9.85;2.33;;;;;;;8.85;99.66;99785.09;5071026;28;20377;-79
2024/01/05 00:50:03;;;;;;;14.63;2.53;;;;;;;8.93;99.16;99789.97;5053532;28;20156;-79
2024/01/05 00:52:28;;;;;;;12.60;3.35;;;;;;;8.82;99.60;99789.69;5076477;28;20036;-78
2024/01/05 00:54:54;;;;;;;7.78;2.80;;;;;;;8.81;99.74;99788.84;5072788;28;20054;-79
2024/01/05 00:57:19;;;;;;;10.93;2.47;;;;;;;8.84;100.00;99777.28;5074244;28;20031;-79
2024/01/05 00:59:45;;;;;;;11.95;3.08;;;;;;;8.82;99.73;99787.03;5071713;28;20040;-79
2024/01/05 01:02:11;;;;;;;10.13;2.33;;;;;;;8.84;100.00;99779.91;5071493;28;20035;-79
2024/01/05 01:04:36;;;;;;;11.20;2.33;;;;;;;8.82;100.00;99782.63;5073398;28;20032;-79
2024/01/05 01:07:01;;;;;;;11.63;2.33;;;;;;;8.84;99.82;99774.63;5054963;28;20127;-77
2024/01/05 01:09:27;;;;;;;12.98;2.58;;;;;;;8.84;99.42;99772.00;5052087;28;20067;-78
2024/01/05 01:11:52;;;;;;;12.25;2.50;;;;;;;8.86;99.80;99765.72;5072516;28;20050;-79
2024/01/05 01:14:18;;;;;;;10.07;2.47;;;;;;;8.91;99.75;99766.34;5077329;28;20480;-79
2024/01/05 01:16:43;;;;;;;7.60;2.90;;;;;;;8.97;99.59;99766.97;5059065;28;20119;-78
2024/01/05 01:19:09;;;;;;;10.82;2.58;;;;;;;8.93;99.35;99763.63;5075302;28;20028;-79
2024/01/05 01:21:34;;;;;;;9.57;2.38;;;;;;;8.90;99.42;99763.78;5079771;28;20032;-79
2024/01/05 01:24:00;;;;;;;14.15;2.60;;;;;;;8.99;99.21;99765.94;5075368;28;20035;-79
2024/01/05 01:26:25;;;;;;;12.98;2.80;;;;;;;9.03;98.73;99764.00;5081450;28;20020;-80
2024/01/05 01:28:50;;;;;;;13.45;2.88;;;;;;;9.04;98.77;99752.53;5077779;28;20032;-79
2024/01/05 01:31:16;;;;;;;9.50;2.55;;;;;;;9.04;98.62;99752.53;5085672;28;20016;-79
2024/01/05 01:33:41;;;;;;;8.85;2.17;;;;;;;9.03;98.77;99743.75;5078677;28;20035;-80
2024/01/05 01:36:06;;;;;;;12.45;2.45;;;;;;;9.03;98.52;99749.03;5074393;28;20039;-80
2024/01/05 01:38:32;;;;;;;12.43;3.50;;;;;;;9.02;98.24;99738.59;5076252;28;20077;-79
2024/01/05 01:40:58;;;;;;;7.88;2.45;;;;;;;9.04;98.17;99744.63;5060741;28;20068;-79
2024/01/05 01:43:25;;;;;;;9.50;2.55;;;;;;;9.01;98.41;99737.72;5078227;28;20081;-75
2024/01/05 01:45:57;;;;;;;10.30;2.20;;;;;;;9.05;98.17;99738.44;5078440;28;20032;-74
2024/01/05 01:48:23;;;;;;;13.10;2.22;;;;;;;9.05;97.76;99735.81;5059565;28;20040;-74
2024/01/05 01:50:50;;;;;;;5.97;2.03;;;;;;;9.04;97.82;99729.66;5062149;28;20361;-74
2024/01/05 01:53:18;;;;;;;7.97;2.30;;;;;;;9.03;97.82;99720.03;5067566;28;20458;-75
2024/01/05 01:55:45;;;;;;;7.68;2.03;;;;;;;9.04;97.62;99715.63;5060669;28;20051;-75
2024/01/05 01:58:15;;;;;;;11.55;2.30;;;;;;;9.05;97.67;99715.56;5056983;28;20026;-74
2024/01/05 02:00:41;;;;;;;6.45;2.00;;;;;;;9.02;97.58;99717.50;5074005;28;20028;-74
2024/01/05 02:03:07;;;;;;;9.90;2.20;;;;;;;9.03;97.68;99712.13;5082546;28;20393;-74
2024/01/05 02:05:32;;;;;;;7.82;1.95;;;;;;;9.01;97.63;99702.63;5075809;28;20020;-75
2024/01/05 02:07:58;;;;;;;9.77;2.00;;;;;;;9.01;97.79;99697.34;5080319;28;20387;-74
2024/01/05 02:10:23;;;;;;;8.23;2.67;;;;;;;8.96;97.12;99694.09;5057302;28;20036;-74
2024/01/05 02:12:49;;;;;;;9.93;2.17;;;;;;;8.97;97.40;99695.78;5077488;28;20505;-74
2024/01/05 02:15:14;;;;;;;8.90;2.00;;;;;;;8.91;97.40;99683.78;5083102;28;20027;-74
2024/01/05 02:17:40;;;;;;;6.55;1.90;;;;;;;8.91;97.32;99675.88;5083271;28;20081;-74
2024/01/05 02:20:06;;;;;;;7.22;2.00;;;;;;;8.90;96.90;99674.16;5083329;28;20036;-74
2024/01/05 02:22:34;;;;;;;8.43;2.05;;;;;;;8.76;97.04;99660.84;5082138;28;20020;-74
2024/01/05 02:25:01;;;;;;;11.98;2.10;;;;;;;8.67;96.94;99664.78;5086707;28;20475;-74
2024/01/05 02:27:26;;;;;;;7.53;1.90;;;;;;;8.64;97.27;99665.81;5063428;28;20025;-74
2024/01/05 02:29:52;;;;;;;6.32;2.03;;;;;;;8.60;96.99;99659.00;5079722;28;20495;-74
2024/01/05 02:32:17;;;;;;;5.97;1.83;;;;;;;8.56;97.10;99660.09;5084662;28;20040;-78
2024/01/05 02:34:43;;;;;;;9.55;1.83;;;;;;;8.50;96.97;99651.66;5063693;28;20035;-79
2024/01/05 02:37:09;;;;;;;6.78;1.85;;;;;;;8.50;96.86;99649.88;5088570;28;20034;-79
2024/01/05 02:39:35;;;;;;;6.70;1.98;;;;;;;8.46;97.06;99652.72;5072825;28;20024;-79
2024/01/05 02:42:00;;;;;;;9.02;1.85;;;;;;;8.48;97.34;99646.44;5086938;28;20489;-79
2024/01/05 02:44:25;;;;;;;3.72;1.60;;;;;;;8.51;97.24;99634.91;5076968;28;20050;-79
2024/01/05 02:46:51;;;;;;;5.50;1.95;;;;;;;8.51;96.90;99632.28;5069191;28;20032;-78
2024/01/05 02:49:16;;;;;;;6.22;2.28;;;;;;;8.51;97.22;99630.50;5067627;28;20032;-79
2024/01/05 02:51:42;;;;;;;4.15;1.70;;;;;;;8.54;97.10;99630.34;5083282;28;20027;-78
2024/01/05 02:54:08;;;;;;;8.13;1.92;;;;;;;8.55;96.56;99626.78;5071499;28;20077;-74
2024/01/05 02:56:34;;;;;;;7.80;1.90;;;;;;;8.63;96.50;99629.88;5084323;28;20035;-74
2024/01/05 02:58:59;;;;;;;8.10;1.95;;;;;;;8.64;96.85;99626.31;5066228;28;20041;-74
2024/01/05 03:01:25;;;;;;;7.20;2.00;;;;;;;8.62;96.85;99612.34;5078792;28;20085;-74
2024/01/05 03:03:50;;;;;;;4.22;1.30;;;;;;;8.65;96.52;99611.34;5081454;28;20429;-74
2024/01/05 03:06:16;;;;;;;5.03;1.67;;;;;;;8.66;96.40;99608.63;5067199;28;20021;-74
2024/01/05 03:08:43;;;;;;;4.38;1.40;;;;;;;8.72;96.34;99614.50;5085937;28;20064;-75
2024/01/05 03:11:09;;;;;;;5.90;2.08;;;;;;;8.72;95.96;99609.22;5069126;28;20020;-74
2024/01/05 03:13:34;;;;;;;6.88;1.52;;;;;;;8.77;95.39;99596.69;5079897;28;20120;-74
2024/01/05 03:16:00;;;;;;;4.45;1.83;;;;;;;8.86;94.85;99598.81;5080127;28;20024;-74
2024/01/05 03:18:26;;;;;;;5.78;1.67;;;;;;;8.87;94.62;99595.25;5091390;28;20032;-75
2024/01/05 03:20:51;;;;;;;4.13;1.30;;;;;;;8.88;94.36;99589.06;5066410;28;20027;-74
2024/01/05 03:23:16;;;;;;;4.60;1.58;;;;;;;8.88;94.42;99581.16;5085737;28;20074;-75
2024/01/05 03:25:43;;;;;;;5.18;1.70;;;;;;;8.89;94.05;99578.41;5084217;28;20024;-75
2024/01/05 03:28:10;;;;;;;8.38;1.98;;;;;;;8.82;93.93;99582.34;5088257;28;20032;-75
2024/01/05 03:30:36;;;;;;;5.75;1.40;;;;;;;8.86;93.67;99581.25;5069414;28;20028;-74
2024/01/05 03:33:02;;;;;;;8.90;1.70;;;;;;;8.84;93.82;99569.06;5081852;28;20535;-74
2024/01/05 03:35:27;;;;;;;8.57;1.92;;;;;;;8.85;93.67;99568.97;5090157;28;20116;-74
2024/01/05 03:37:52;;;;;;;6.30;1.30;;;;;;;8.89;93.55;99569.66;5088220;28;20052;-74
2024/01/05 03:40:18;;;;;;;8.32;2.05;;;;;;;8.85;93.40;99568.97;5075854;28;20068;-74
2024/01/05 03:42:46;;;;;;;6.07;1.73;;;;;;;8.83;93.52;99565.59;5086688;28;20107;-75
2024/01/05 03:45:11;;;;;;;9.07;2.00;;;;;;;8.85;93.70;99560.22;5085343;28;20063;-75
2024/01/05 03:47:37;;;;;;;4.05;1.70;;;;;;;8.81;93.13;99553.41;5071285;28;20435;-74
2024/01/05 03:50:02;;;;;;;7.13;1.30;;;;;;;8.83;92.99;99548.91;5086490;28;20043;-75
2024/01/05 03:52:28;;;;;;;4.65;1.67;;;;;;;8.84;92.60;99550.63;5088407;28;20427;-75
2024/01/05 03:54:53;;;;;;;6.28;1.65;;;;;;;8.88;92.19;99536.34;5087218;28;20396;-74
2024/01/05 03:57:21;;;;;;;6.38;1.50;;;;;;;8.84;92.37;99533.00;5082332;28;20379;-74
2024/01/05 03:59:46;;;;;;;5.97;1.85;;;;;;;8.87;92.26;99534.66;5069760;28;20038;-75
2024/01/05 04:02:12;;;;;;;4.80;1.23;;;;;;;8.86;92.21;99527.66;5080794;28;20391;-74
2024/01/05 04:04:37;;;;;;;6.78;1.70;;;;;;;8.87;92.17;99521.47;5081960;28;20059;-74
2024/01/05 04:07:03;;;;;;;7.57;1.52;;;;;;;8.84;92.39;99525.09;5088490;28;20016;-75
2024/01/05 04:09:28;;;;;;;2.05;1.00;;;;;;;8.78;91.79;99519.34;5072276;28;20101;-75
2024/01/05 04:11:54;;;;;;;7.22;1.27;;;;;;;8.77;91.88;99515.84;5081846;28;20039;-75
2024/01/05 04:14:19;;;;;;;5.88;1.42;;;;;;;8.76;91.88;99511.50;5085568;28;20422;-75
2024/01/05 04:16:44;;;;;;;5.93;1.60;;;;;;;8.71;91.35;99504.78;5086262;28;20419;-75
2024/01/05 04:19:10;;;;;;;5.22;1.73;;;;;;;8.75;91.18;99501.88;5083906;28;20119;-75
2024/01/05 04:21:35;;;;;;;5.28;1.90;;;;;;;8.72;91.50;99494.16;5063486;28;20436;-75
2024/01/05 04:24:01;;;;;;;8.35;1.60;;;;;;;8.67;91.20;99485.63;5081181;28;20028;-74
2024/01/05 04:26:27;;;;;;;5.03;1.35;;;;;;;8.73;91.17;99487.13;5065390;28;20483;-75
2024/01/05 04:28:52;;;;;;;5.40;1.60;;;;;;;8.75;91.03;99485.22;5085351;28;20020;-74
2024/01/05 04:31:17;;;;;;;4.45;1.88;;;;;;;8.74;90.39;99479.13;5060220;28;20036;-75
2024/01/05 04:33:43;;;;;;;6.45;1.63;;;;;;;8.72;90.67;99478.38;5084663;28;20035;-74
2024/01/05 04:36:09;;;;;;;4.18;1.45;;;;;;;8.73;90.35;99476.56;5081569;28;20020;-75
2024/01/05 04:38:34;;;;;;;3.90;1.15;;;;;;;8.75;90.00;99477.31;5085981;28;20020;-75
2024/01/05 04:41:01;;;;;;;8.70;1.38;;;;;;;8.75;90.19;99464.16;5083593;28;20032;-74
2024/01/05 04:43:27;;;;;;;5.78;1.23;;;;;;;8.77;89.40;99462.31;5078222;28;20090;-75
2024/01/05 04:45:52;;;;;;;5.43;1.35;;;;;;;8.74;89.47;99462.47;5070951;28;20472;-74
2024/01/05 04:48:18;;;;;;;10.98;1.88;;;;;;;8.68;90.02;99464.50;5081184;28;20078;-74
2024/01/05 04:50:44;;;;;;;3.90;1.40;;;;;;;8.72;89.83;99457.28;5083281;28;20056;-75
2024/01/05 04:53:09;;;;;;;3.90;1.33;;;;;;;8.71;89.04;99447.66;5082264;28;20032;-79
2024/01/05 04:55:35;;;;;;;3.53;1.20;;;;;;;8.72;89.57;99451.13;5079282;28;20032;-78
2024/01/05 04:58:00;;;;;;;5.88;1.40;;;;;;;8.74;89.15;99439.59;5057498;28;20021;-78
2024/01/05 05:00:26;;;;;;;3.15;1.10;;;;;;;8.74;88.97;99436.09;5078655;28;20016;-79
2024/01/05 05:02:51;;;;;;;4.18;1.30;;;;;;;8.74;88.59;99441.38;5085030;28;20137;-79
2024/01/05 05:05:16;;;;;;;8.63;1.70;;;;;;;8.67;89.61;99430.31;5085112;28;20359;-79
2024/01/05 05:07:42;;;;;;;5.32;1.45;;;;;;;8.66;88.90;99431.25;5087044;28;20051;-78
2024/01/05 05:10:08;;;;;;;5.15;1.60;;;;;;;8.65;88.84;99425.13;5076160;28;20139;-79
2024/01/05 05:12:33;;;;;;;6.13;1.20;;;;;;;8.60;88.74;99414.00;5058638;28;20378;-79
2024/01/05 05:14:59;;;;;;;7.53;1.55;;;;;;;8.53;88.89;99415.25;5083757;28;20668;-74
2024/01/05 05:17:24;;;;;;;6.43;1.48;;;;;;;8.49;88.58;99419.03;5080896;28;20027;-75
2024/01/05 05:19:54;;;;;;;3.92;1.33;;;;;;;8.49;88.56;99416.38;5073932;28;20027;-74
2024/01/05 05:22:20;;;;;;;7.15;1.50;;;;;;;8.53;89.10;99417.03;5057830;28;20376;-74
2024/01/05 05:24:45;;;;;;;5.18;1.65;;;;;;;8.53;88.44;99414.41;5086198;28;20032;-75
2024/01/05 05:27:10;;;;;;;3.13;1.00;;;;;;;8.65;88.28;99419.88;5075945;28;20024;-75
2024/01/05 05:29:35;;;;;;;6.70;1.10;;;;;;;8.71;87.91;99417.81;5086366;28;20070;-75
2024/01/05 05:32:01;;;;;;;5.05;1.48;;;;;;;8.73;87.26;99414.19;5078392;28;20032;-75
2024/01/05 05:34:26;;;;;;;2.63;1.20;;;;;;;8.77;86.53;99415.72;5080530;28;20031;-74
2024/01/05 05:36:51;;;;;;;2.95;0.88;;;;;;;8.87;86.58;99416.06;5060084;28;20012;-74
2024/01/05 05:39:18;;;;;;;3.58;1.13;;;;;;;8.86;86.90;99409.94;5082522;28;20024;-74
2024/01/05 05:41:43;;;;;;;4.80;1.20;;;;;;;8.92;86.58;99408.72;5085105;28;20024;-74
2024/01/05 05:44:08;;;;;;;2.97;1.20;;;;;;;8.88;85.93;99415.13;5064087;28;20039;-75
2024/01/05 05:46:34;;;;;;;6.00;1.20;;;;;;;8.96;85.86;99410.25;5072469;28;20162;-75
2024/01/05 05:48:59;;;;;;;5.40;0.90;;;;;;;8.93;84.70;99436.78;5077695;28;20024;-75
2024/01/05 05:51:24;;;;;;;2.75;0.63;;;;;;;9.05;84.79;99425.56;5082842;28;20052;-75
2024/01/05 05:53:50;;;;;;;2.97;1.00;;;;;;;9.05;84.85;99409.75;5083711;28;20099;-75
2024/01/05 05:56:15;;;;;;;4.57;0.93;;;;;;;9.06;84.52;99421.13;5084864;28;20028;-74
2024/01/05 05:58:40;;;;;;;4.03;0.82;;;;;;;8.98;83.62;99408.38;5084193;28;20463;-75
2024/01/05 06:01:06;;;;;;;1.17;0.90;;;;;;;9.10;81.69;99410.34;5093530;28;20104;-75
2024/01/05 06:03:31;;;;;;;6.35;0.90;;;;;;;9.19;80.94;99417.72;5086217;28;20024;-79
2024/01/05 06:05:57;;;;;;;3.03;0.70;;;;;;;9.17;80.45;99414.31;5084736;28;20277;-79
2024/01/05 06:08:23;;;;;;;3.25;1.25;;;;;;;9.16;78.76;99443.41;5087816;28;20158;-78
2024/01/05 06:10:48;;;;;;;1.98;0.40;;;;;;;9.28;74.93;99426.00;5090103;28;20480;-78
2024/01/05 06:13:14;;;;;;;1.95;0.40;;;;;;;9.37;71.64;99425.47;5082636;28;20027;-79
2024/01/05 06:15:39;;;;;;;1.40;0.30;;;;;;;9.29;70.24;99448.84;5070045;28;20499;-79
2024/01/05 06:18:04;;;;;;;1.15;0.40;;;;;;;9.29;68.95;99440.94;5082735;28;20463;-79
2024/01/05 06:20:30;;;;;;;0.20;0.20;;;;;;;9.35;68.88;99430.84;5064108;28;20417;-79
2024/01/05 06:22:55;;;;;;;1.98;0.30;;;;;;;9.29;70.42;99425.94;5089049;28;20024;-79
2024/01/05 06:25:20;;;;;;;1.70;0.35;;;;;;;9.17;69.33;99426.63;5086538;28;20110;-74
2024/01/05 06:27:46;;;;;;;0.90;0.50;;;;;;;9.08;68.81;99435.06;5087571;28;20024;-74
2024/01/05 06:30:11;;;;;;;0.82;0.22;;;;;;;9.17;68.62;99416.94;5064480;28;21282;-74
2024/01/05 06:32:37;;;;;;;0.55;0.55;;;;;;;9.14;69.16;99432.09;5077504;28;20399;-74
2024/01/05 06:35:04;;;;;;;0.20;0.20;;;;;;;9.17;70.05;99432.75;5075017;28;20036;-74
2024/01/05 06:37:30;;;;;;;2.50;0.30;;;;;;;9.13;68.49;99422.47;5075369;28;20038;-75
2024/01/05 06:39:56;;;;;;;3.10;0.50;;;;;;;9.18;68.77;99426.53;5076545;28;20063;-75
2024/01/05 06:42:22;;;;;;;1.55;0.55;;;;;;;9.15;68.91;99428.53;5077908;28;20055;-74
2024/01/05 06:44:47;;;;;;;0.73;0.30;;;;;;;9.19;68.22;99423.00;5081209;28;20020;-74
2024/01/05 06:47:12;;;;;;;0.85;0.30;;;;;;;9.20;67.09;99429.97;5078584;28;20025;-75
2024/01/05 06:49:38;;;;;;;1.38;0.20;;;;;;;9.22;67.69;99432.50;5076858;28;20630;-75
2024/01/05 06:52:03;;;;;;;2.25;0.63;;;;;;;9.11;69.18;99433.13;5065516;28;20403;-74
2024/01/05 06:54:29;;;;;;;2.40;0.50;;;;;;;8.97;70.52;99450.66;5083682;28;20338;-75
2024/01/05 06:56:54;;;;;;;0.43;0.28;;;;;;;8.95;69.92;99448.06;5077355;28;20017;-74
2024/01/05 06:59:20;;;;;;;0.20;0.20;;;;;;;8.96;71.25;99433.13;5087939;28;20431;-75
2024/01/05 07:01:46;;;;;;;0.30;0.30;;;;;;;8.88;70.03;99433.56;5081911;28;20562;-74
2024/01/05 07:04:12;;;;;;;1.50;0.68;;;;;;;8.98;71.59;99426.84;5065431;28;20099;-74
2024/01/05 07:06:41;;;;;;;0.75;0.30;;;;;;;8.83;71.35;99430.34;5087208;28;20035;-74
2024/01/05 07:09:07;;;;;;;1.13;0.35;;;;;;;8.90;71.97;99426.41;5082375;28;20056;-75
2024/01/05 07:11:32;;;;;;;0.65;0.20;;;;;;;8.90;71.49;99426.41;5064612;28;20020;-74
2024/01/05 07:13:57;;;;;;;0.80;0.50;;;;;;;8.85;70.91;99431.09;5087708;28;20023;-79
2024/01/05 07:16:23;;;;;;;0.90;0.40;;;;;;;8.83;70.80;99425.06;5080501;28;20065;-79
2024/01/05 07:18:49;;;;;;;0.20;0.20;;;;;;;8.92;69.22;99443.84;5065212;28;20027;-79
2024/01/05 07:21:15;;;;;;;0.63;0.30;;;;;;;8.88;70.12;99444.09;5077992;28;20028;-79
2024/01/05 07:23:42;;;;;;;0.20;0.20;;;;;;;8.85;70.20;99434.56;5087363;28;20479;-78
2024/01/05 07:26:09;;;;;;;0.30;0.30;;;;;;;8.79;70.62;99432.28;5059063;28;20056;-78
2024/01/05 07:28:35;;;;;;;1.08;0.20;;;;;;;8.90;69.71;99431.69;5084108;28;20028;-77
2024/01/05 07:31:05;;;;;;;0.50;0.20;;;;;;;8.80;69.79;99435.75;5073336;28;20035;-78
2024/01/05 07:33:31;;;;;;;1.58;0.47;;;;;;;8.82;71.47;99426.00;5077407;28;20021;-78
2024/01/05 07:35:56;;;;;;;0.52;0.30;;;;;;;8.74;70.76;99431.69;5060512;28;20114;-77
2024/01/05 07:38:22;;;;;;;0.90;0.28;;;;;;;8.82;71.22;99440.03;5070509;28;20115;-78
2024/01/05 07:40:47;;;;;;;0.75;0.30;;;;;;;8.77;70.94;99422.78;5083779;28;20031;-78
2024/01/05 07:43:13;;;;;;;0.75;0.30;;;;;;;8.69;73.19;99445.13;5072006;28;20043;-78
2024/01/05 07:45:39;;;;;;;1.38;0.40;;;;;;;8.62;72.62;99427.06;5063022;28;20036;-78
2024/01/05 07:48:05;;;;;;;0.60;0.40;;;;;;;8.46;73.31;99434.13;5068046;28;20499;-79
2024/01/05 07:50:31;;;;;;;0.38;0.30;;;;;;;8.33;74.75;99426.00;5081125;28;20039;-78
2024/01/05 07:52:56;;;;;;;1.08;0.50;;;;;;;8.30;76.54;99445.47;5075184;28;20020;-79
2024/01/05 07:55:22;;;;;;;0.75;0.45;;;;;;;8.24;77.57;99440.50;5075391;28;20024;-78
2024/01/05 07:57:47;;;;;;;0.30;0.30;;;;;;;8.22;77.39;99454.69;5064626;28;20138;-79
2024/01/05 08:00:13;;;;;;;0.63;0.40;;;;;;;8.18;78.92;99449.56;5082254;28;20043;-78
2024/01/05 08:02:39;;;;;;;1.70;0.20;;;;;;;8.08;80.60;99452.78;5089042;28;20107;-79
2024/01/05 08:05:05;;;;;;;0.50;0.30;;;;;;;8.01;81.04;99456.66;5084021;28;20398;-78
2024/01/05 08:07:30;;;;;;;0.60;0.30;;;;;;;8.03;81.40;99444.28;5079136;28;20035;-79
2024/01/05 08:09:55;;;;;;;0.20;0.20;;;;;;;7.86;82.63;99442.50;5062276;28;20048;-81
2024/01/05 08:12:21;;;;;;;0.82;0.30;;;;;;;7.81;83.53;99455.91;5059708;28;20024;-80
2024/01/05 08:14:47;;;;;;;0.65;0.40;;;;;;;7.73;83.37;99447.53;5058076;28;20082;-78
2024/01/05 08:17:13;;;;;;;0.30;0.30;;;;;;;7.72;84.90;99445.00;5086313;28;20042;-78
2024/01/05 08:19:38;;;;;;;1.83;0.50;;;;;;;7.71;83.34;99452.03;5087314;28;20089;-80
2024/01/05 08:22:04;;;;;;;0.57;0.30;;;;;;;7.75;83.16;99423.81;5089519;28;20035;-79
2024/01/05 08:24:29;;;;;;;0.80;0.32;;;;;;;7.77;82.79;99451.72;5069191;28;20023;-80
2024/01/05 08:26:55;;;;;;;1.63;0.30;;;;;;;7.73;84.24;99452.78;5066532;28;20020;-80
2024/01/05 08:29:21;;;;;;;0.77;0.47;;;;;;;7.77;83.84;99448.22;5084494;28;20456;-79
2024/01/05 08:31:48;;;;;;;0.43;0.35;;;;;;;7.77;84.35;99445.59;5092465;28;20040;-79
2024/01/05 08:34:13;;;;;;;1.17;0.32;;;;;;;7.74;84.27;99446.63;5089106;28;20028;-78
2024/01/05 08:36:39;;;;;;;0.95;0.50;;;;;;;7.66;84.52;99438.28;5068054;28;20491;-79
2024/01/05 08:39:05;;;;;;;0.98;0.50;;;;;;;7.61;87.86;99456.91;5086531;28;20477;-80
2024/01/05 08:41:31;;;;;;;0.80;0.60;;;;;;;7.57;86.47;99470.28;5087119;28;20080;-79
2024/01/05 08:43:56;;;;;;;0.85;0.50;;;;;;;7.55;86.18;99456.34;5061329;28;20027;-79
2024/01/05 08:46:22;;;;;;;1.85;0.50;;;;;;;7.56;87.61;99468.59;5084519;28;20024;-79
2024/01/05 08:48:47;;;;;;;0.85;0.50;;;;;;;7.32;86.85;99473.25;5085365;28;20395;-80
2024/01/05 08:51:12;;;;;;;1.33;0.30;;;;;;;7.34;89.95;99476.69;5086813;28;20055;-81
2024/01/05 08:53:38;;;;;;;0.95;0.47;;;;;;;7.32;88.88;99471.50;5089646;28;20024;-80
2024/01/05 08:56:03;;;;;;;0.50;0.30;;;;;;;7.35;88.08;99475.75;5089289;28;20024;-80
2024/01/05 08:58:29;;;;;;;0.30;0.30;;;;;;;7.24;87.88;99475.44;5070326;28;20578;-80
2024/01/05 09:00:54;;;;;;;0.30;0.30;;;;;;;7.14;88.94;99480.28;5088134;28;20035;-79
2024/01/05 09:03:19;;;;;;;0.30;0.30;;;;;;;7.14;89.17;99481.13;5085422;28;20034;-81
2024/01/05 09:05:46;;;;;;;1.95;0.40;;;;;;;7.06;87.02;99485.88;5083242;28;20028;-80
2024/01/05 09:08:11;;;;;;;1.77;0.30;;;;;;;7.11;86.60;99501.44;5088409;28;20020;-80
2024/01/05 09:10:38;;;;;;;0.43;0.40;;;;;;;6.84;87.34;99498.31;5069661;28;20097;-80
2024/01/05 09:13:03;;;;;;;0.35;0.30;;;;;;;6.82;87.89;99490.53;5084265;28;20491;-81
2024/01/05 09:15:29;;;;;;;0.25;0.25;;;;;;;6.78;89.05;99486.34;5084199;28;20294;-79
2024/01/05 09:17:54;;;;;;;0.60;0.30;;;;;;;6.65;89.92;99488.66;5081056;28;20392;-80
2024/01/05 09:20:20;;;;;;;1.33;0.55;;;;;;;6.64;92.30;99488.75;5084372;28;20020;-81
2024/01/05 09:22:45;;;;;;;0.85;0.40;;;;;;;6.70;92.58;99491.06;5084342;28;20047;-81
2024/01/05 09:25:11;;;;;;;0.88;0.50;;;;;;;6.40;94.13;99488.09;5084311;28;20057;-80
2024/01/05 09:27:36;;;;;;;1.55;0.40;;;;;;;6.39;94.76;99512.63;5087565;28;20062;-78
2024/01/05 09:30:03;;;;;;;0.30;0.30;;;;;;;6.43;94.25;99498.44;5093138;28;20112;-81
2024/01/05 09:32:29;;;;;;;0.50;0.50;;;;;;;6.42;94.04;99493.25;5082503;28;20056;-80
2024/01/05 09:34:54;;;;;;;1.25;0.50;;;;;;;6.45;93.72;99496.59;5087127;28;20048;-75
2024/01/05 09:37:19;;;;;;;0.88;0.50;;;;;;;6.37;91.96;99509.22;5086408;28;20024;-75
2024/01/05 09:39:45;;;;;;;2.95;0.60;;;;;;;6.44;91.82;99536.91;5058171;28;20028;-73
2024/01/05 09:42:10;;;;;;;0.40;0.40;;;;;;;6.53;92.38;99499.75;5063150;28;20531;-74
2024/01/05 09:44:36;;;;;;;0.95;0.50;;;;;;;6.54;93.29;99500.59;5068950;28;20028;-76
2024/01/05 09:47:02;;;;;;;0.50;0.45;;;;;;;6.68;90.85;99502.59;5083546;28;20024;-75
2024/01/05 09:49:33;;;;;;;0.40;0.40;;;;;;;6.73;91.21;99500.59;5068200;28;20035;-77
2024/01/05 09:51:59;;;;;;;1.10;0.47;;;;;;;6.68;91.08;99507.84;5067116;28;20113;-73
2024/01/05 09:54:24;;;;;;;2.70;0.70;;;;;;;6.69;90.28;99496.41;5083128;28;20353;-76
2024/01/05 09:56:50;;;;;;;1.27;0.93;;;;;;;6.78;91.44;99496.84;5064093;28;20063;-75
2024/01/05 09:59:17;;;;;;;1.77;0.65;;;;;;;6.78;90.75;99506.50;5064583;28;20024;-74
2024/01/05 10:01:42;;;;;;;0.85;0.70;;;;;;;6.91;91.31;99507.63;5082396;28;20415;-75
2024/01/05 10:04:09;;;;;;;1.13;0.55;;;;;;;6.94;90.25;99504.84;5085358;28;20040;-74
2024/01/05 10:06:34;;;;;;;0.50;0.50;;;;;;;6.99;90.17;99513.38;5065025;28;20028;-75
2024/01/05 10:09:01;;;;;;;0.70;0.70;;;;;;;7.07;89.78;99503.34;5086850;28;20048;-74
2024/01/05 10:11:29;;;;;;;1.00;0.77;;;;;;;7.04;89.37;99511.41;5082084;28;20486;-74
2024/01/05 10:13:56;;;;;;;2.10;0.70;;;;;;;7.06;88.47;99503.44;5081817;28;20024;-75
2024/01/05 10:16:24;;;;;;;2.10;0.88;;;;;;;7.15;88.40;99509.09;5087492;28;20024;-75
2024/01/05 10:18:49;;;;;;;1.77;1.63;;;;;;;7.25;88.11;99514.78;5066302;28;20046;-75
2024/01/05 10:21:15;;;;;;;0.85;0.85;;;;;;;7.37;88.18;99513.34;5079051;28;20520;-74
2024/01/05 10:23:42;;;;;;;1.58;1.48;;;;;;;7.36;87.62;99501.94;5081674;28;20387;-75
2024/01/05 10:26:16;;;;;;;1.63;0.98;;;;;;;7.42;86.74;99500.81;5069036;28;20028;-74
2024/01/05 10:28:41;;;;;;;2.45;0.80;;;;;;;7.59;86.43;99524.50;5088462;28;20398;-76
2024/01/05 10:31:12;;;;;;;0.98;0.98;;;;;;;7.60;85.02;99506.94;5066697;28;20024;-75
2024/01/05 10:33:54;;;;;;;2.80;1.00;;;;;;;7.64;85.18;99500.59;5079045;28;20485;-73
2024/01/05 10:36:24;;;;;;;0.90;0.90;;;;;;;7.81;84.89;99505.03;5077574;28;20132;-72
2024/01/05 10:38:50;;;;;;;2.22;1.02;;;;;;;7.70;84.02;99497.69;5073805;28;20078;-73
2024/01/05 10:41:17;;;;;;;0.80;0.70;;;;;;;7.69;84.13;99503.84;5077618;28;20590;-72
2024/01/05 10:43:43;;;;;;;1.25;0.73;;;;;;;7.74;84.53;99508.88;5082149;28;20111;-74
2024/01/05 10:46:10;;;;;;;0.80;0.80;;;;;;;7.61;83.69;99501.63;5088564;28;20461;-76
2024/01/05 10:48:36;;;;;;;1.92;0.98;;;;;;;7.51;82.75;99517.94;5082692;28;20428;-76
2024/01/05 10:51:02;;;;;;;3.30;1.15;;;;;;;7.60;83.17;99505.19;5085365;28;20472;-75
2024/01/05 10:53:27;;;;;;;1.00;0.90;;;;;;;7.71;83.02;99528.31;5072344;28;20038;-76
2024/01/05 10:55:56;;;;;;;1.00;0.90;;;;;;;7.64;82.98;99517.22;5082690;28;20104;-76
2024/01/05 10:58:22;;;;;;;1.42;0.93;;;;;;;7.70;83.04;99520.53;5088634;28;20074;-76
2024/01/05 11:00:48;;;;;;;2.60;1.05;;;;;;;7.62;82.93;99523.50;5078498;28;20016;-76
2024/01/05 11:03:14;;;;;;;0.80;0.70;;;;;;;7.67;82.86;99505.72;5084127;28;20051;-76
2024/01/05 11:05:41;;;;;;;0.85;0.85;;;;;;;7.69;82.15;99519.63;5086888;28;20028;-73
2024/01/05 11:08:26;;;;;;;0.65;0.65;;;;;;;7.66;81.64;99543.47;5094867;28;20036;-74
2024/01/05 11:11:15;;;;;;;1.42;0.77;;;;;;;7.66;82.27;99510.13;5089825;28;20059;-75
2024/01/05 11:13:57;;;;;;;1.98;0.98;;;;;;;7.65;82.06;99515.47;5076218;28;20036;-76
2024/01/05 11:17:02;;;;;;;0.70;0.70;;;;;;;7.66;82.31;99523.28;5073775;28;20140;-75
2024/01/05 11:19:46;;;;;;;2.72;0.80;;;;;;;7.73;82.41;99518.56;5057673;28;20380;-74
2024/01/05 11:22:19;;;;;;;1.85;0.75;;;;;;;7.66;82.39;99510.13;5060802;28;21935;-72
2024/01/05 11:24:45;;;;;;;0.82;0.80;;;;;;;7.68;82.47;99517.94;5080032;28;20058;-74
2024/01/05 11:27:33;;;;;;;1.60;0.77;;;;;;;7.62;82.64;99536.66;5082146;28;20035;-78
2024/01/05 11:29:59;;;;;;;1.40;1.30;;;;;;;7.70;83.21;99517.88;5062941;28;20485;-74
2024/01/05 11:32:42;;;;;;;1.10;1.00;;;;;;;7.72;83.16;99508.97;5078112;28;20024;-75
2024/01/05 11:35:32;;;;;;;2.78;1.00;;;;;;;7.74;82.78;99511.53;5070914;28;20058;-75
2024/01/05 11:37:58;;;;;;;1.52;1.00;;;;;;;7.69;82.78;99519.63;5077993;28;20395;-75